sensor_id;sensor_type;location;lat;lon;timestamp;P1;durP1;ratioP1;P2;durP2;ratioP2
76167;SDS011;64927;48.214;16.378;2023-04-29T00:00:21;19.60;;;11.85;;
76167;SDS011;64927;48.214;16.378;2023-04-29T00:02:49;20.23;;;12.90;;
76167;SDS011;64927;48.214;16.378;2023-04-29T00:05:15;17.00;;;12.30;;
76167;SDS011;64927;48.214;16.378;2023-04-29T00:07:40;24.13;;;14.07;;
76167;SDS011;64927;48.214;16.378;2023-04-29T00:10:08;20.30;;;12.68;;
76167;SDS011;64927;48.214;16.378;2023-04-29T00:12:36;20.02;;;15.00;;
76167;SDS011;64927;48.214;16.378;2023-04-29T00:15:02;23.73;;;15.02;;
76167;SDS011;64927;48.214;16.378;2023-04-29T00:17:28;23.45;;;14.98;;
76167;SDS011;64927;48.214;16.378;2023-04-29T00:19:54;24.60;;;15.38;;
76167;SDS011;64927;48.214;16.378;2023-04-29T00:22:22;24.13;;;14.45;;
76167;SDS011;64927;48.214;16.378;2023-04-29T00:24:47;25.05;;;16.92;;
76167;SDS011;64927;48.214;16.378;2023-04-29T00:27:13;26.05;;;17.13;;
76167;SDS011;64927;48.214;16.378;2023-04-29T00:29:40;31.75;;;17.63;;
76167;SDS011;64927;48.214;16.378;2023-04-29T00:32:06;26.08;;;17.42;;
76167;SDS011;64927;48.214;16.378;2023-04-29T00:34:32;31.85;;;15.70;;
76167;SDS011;64927;48.214;16.378;2023-04-29T00:36:57;23.55;;;15.82;;
76167;SDS011;64927;48.214;16.378;2023-04-29T00:39:23;28.15;;;16.27;;
76167;SDS011;64927;48.214;16.378;2023-04-29T00:41:49;25.38;;;16.63;;
76167;SDS011;64927;48.214;16.378;2023-04-29T00:44:15;31.13;;;18.95;;
76167;SDS011;64927;48.214;16.378;2023-04-29T00:46:41;28.08;;;17.80;;
76167;SDS011;64927;48.214;16.378;2023-04-29T00:49:07;30.38;;;18.65;;
76167;SDS011;64927;48.214;16.378;2023-04-29T00:51:33;28.85;;;17.70;;
76167;SDS011;64927;48.214;16.378;2023-04-29T00:54:01;27.35;;;17.63;;
76167;SDS011;64927;48.214;16.378;2023-04-29T00:56:30;25.40;;;17.70;;
76167;SDS011;64927;48.214;16.378;2023-04-29T00:58:57;26.85;;;17.50;;
76167;SDS011;64927;48.214;16.378;2023-04-29T01:01:26;31.83;;;17.52;;
76167;SDS011;64927;48.214;16.378;2023-04-29T01:03:53;27.77;;;18.98;;
76167;SDS011;64927;48.214;16.378;2023-04-29T01:15:00;23.20;;;16.98;;
76167;SDS011;64927;48.214;16.378;2023-04-29T01:17:43;26.70;;;16.85;;
76167;SDS011;64927;48.214;16.378;2023-04-29T01:20:15;27.52;;;17.52;;
76167;SDS011;64927;48.214;16.378;2023-04-29T01:22:41;28.50;;;18.50;;
76167;SDS011;64927;48.214;16.378;2023-04-29T01:25:07;27.13;;;17.52;;
76167;SDS011;64927;48.214;16.378;2023-04-29T01:30:44;29.70;;;18.15;;
76167;SDS011;64927;48.214;16.378;2023-04-29T01:41:42;37.03;;;19.95;;
76167;SDS011;64927;48.214;16.378;2023-04-29T01:44:28;34.35;;;21.20;;
76167;SDS011;64927;48.214;16.378;2023-04-29T01:46:55;33.83;;;21.77;;
76167;SDS011;64927;48.214;16.378;2023-04-29T01:49:25;40.53;;;22.92;;
76167;SDS011;64927;48.214;16.378;2023-04-29T01:51:52;45.83;;;22.92;;
76167;SDS011;64927;48.214;16.378;2023-04-29T01:54:18;43.08;;;23.85;;
76167;SDS011;64927;48.214;16.378;2023-04-29T01:56:46;41.45;;;24.10;;
76167;SDS011;64927;48.214;16.378;2023-04-29T01:59:12;40.35;;;24.08;;
76167;SDS011;64927;48.214;16.378;2023-04-29T02:01:38;46.53;;;24.95;;
76167;SDS011;64927;48.214;16.378;2023-04-29T02:04:05;40.42;;;24.25;;
76167;SDS011;64927;48.214;16.378;2023-04-29T02:06:31;37.88;;;24.25;;
76167;SDS011;64927;48.214;16.378;2023-04-29T02:08:57;38.20;;;23.88;;
76167;SDS011;64927;48.214;16.378;2023-04-29T02:11:23;39.20;;;23.60;;
76167;SDS011;64927;48.214;16.378;2023-04-29T02:13:49;37.47;;;23.50;;
76167;SDS011;64927;48.214;16.378;2023-04-29T02:16:15;41.25;;;23.60;;
76167;SDS011;64927;48.214;16.378;2023-04-29T02:18:43;42.13;;;24.67;;
76167;SDS011;64927;48.214;16.378;2023-04-29T02:21:09;41.88;;;23.55;;
76167;SDS011;64927;48.214;16.378;2023-04-29T02:23:36;40.55;;;23.27;;
76167;SDS011;64927;48.214;16.378;2023-04-29T02:26:02;38.70;;;24.10;;
76167;SDS011;64927;48.214;16.378;2023-04-29T02:28:31;39.65;;;24.25;;
76167;SDS011;64927;48.214;16.378;2023-04-29T02:31:02;40.25;;;23.67;;
76167;SDS011;64927;48.214;16.378;2023-04-29T02:33:30;41.15;;;24.20;;
76167;SDS011;64927;48.214;16.378;2023-04-29T02:35:56;39.13;;;23.52;;
76167;SDS011;64927;48.214;16.378;2023-04-29T02:38:23;38.05;;;24.10;;
76167;SDS011;64927;48.214;16.378;2023-04-29T02:40:49;38.50;;;23.88;;
76167;SDS011;64927;48.214;16.378;2023-04-29T02:43:17;34.40;;;23.30;;
76167;SDS011;64927;48.214;16.378;2023-04-29T02:45:43;45.13;;;24.65;;
76167;SDS011;64927;48.214;16.378;2023-04-29T02:48:08;39.03;;;24.40;;
76167;SDS011;64927;48.214;16.378;2023-04-29T02:50:34;43.70;;;25.77;;
76167;SDS011;64927;48.214;16.378;2023-04-29T02:52:59;41.40;;;24.92;;
76167;SDS011;64927;48.214;16.378;2023-04-29T02:55:28;45.65;;;25.60;;
76167;SDS011;64927;48.214;16.378;2023-04-29T02:57:54;42.65;;;24.63;;
76167;SDS011;64927;48.214;16.378;2023-04-29T03:00:22;37.75;;;22.77;;
76167;SDS011;64927;48.214;16.378;2023-04-29T03:02:48;36.60;;;23.08;;
76167;SDS011;64927;48.214;16.378;2023-04-29T03:05:13;40.63;;;25.73;;
76167;SDS011;64927;48.214;16.378;2023-04-29T03:07:41;35.50;;;23.55;;
76167;SDS011;64927;48.214;16.378;2023-04-29T03:10:08;38.38;;;23.92;;
76167;SDS011;64927;48.214;16.378;2023-04-29T03:12:34;40.92;;;24.83;;
76167;SDS011;64927;48.214;16.378;2023-04-29T03:14:59;36.53;;;24.25;;
76167;SDS011;64927;48.214;16.378;2023-04-29T03:17:25;41.53;;;25.05;;
76167;SDS011;64927;48.214;16.378;2023-04-29T03:19:51;38.70;;;23.00;;
76167;SDS011;64927;48.214;16.378;2023-04-29T03:22:18;32.55;;;20.52;;
76167;SDS011;64927;48.214;16.378;2023-04-29T03:24:46;31.67;;;19.50;;
76167;SDS011;64927;48.214;16.378;2023-04-29T03:27:11;30.30;;;18.85;;
76167;SDS011;64927;48.214;16.378;2023-04-29T03:29:39;29.60;;;18.85;;
76167;SDS011;64927;48.214;16.378;2023-04-29T03:32:08;34.78;;;20.40;;
76167;SDS011;64927;48.214;16.378;2023-04-29T03:34:36;34.58;;;19.02;;
76167;SDS011;64927;48.214;16.378;2023-04-29T03:37:01;25.67;;;18.35;;
76167;SDS011;64927;48.214;16.378;2023-04-29T03:39:27;29.63;;;18.33;;
76167;SDS011;64927;48.214;16.378;2023-04-29T03:41:56;30.42;;;18.95;;
76167;SDS011;64927;48.214;16.378;2023-04-29T03:44:23;27.63;;;17.20;;
76167;SDS011;64927;48.214;16.378;2023-04-29T03:46:49;29.90;;;17.33;;
76167;SDS011;64927;48.214;16.378;2023-04-29T03:49:15;28.38;;;17.65;;
76167;SDS011;64927;48.214;16.378;2023-04-29T03:51:43;30.55;;;16.98;;
76167;SDS011;64927;48.214;16.378;2023-04-29T03:54:11;27.23;;;17.00;;
76167;SDS011;64927;48.214;16.378;2023-04-29T03:56:37;33.83;;;21.58;;
76167;SDS011;64927;48.214;16.378;2023-04-29T03:59:03;28.30;;;19.17;;
76167;SDS011;64927;48.214;16.378;2023-04-29T04:01:29;33.15;;;21.13;;
76167;SDS011;64927;48.214;16.378;2023-04-29T04:03:57;31.38;;;20.33;;
76167;SDS011;64927;48.214;16.378;2023-04-29T04:06:25;33.03;;;20.90;;
76167;SDS011;64927;48.214;16.378;2023-04-29T04:08:50;41.35;;;21.88;;
76167;SDS011;64927;48.214;16.378;2023-04-29T04:11:18;32.13;;;20.65;;
76167;SDS011;64927;48.214;16.378;2023-04-29T04:13:44;35.63;;;22.92;;
76167;SDS011;64927;48.214;16.378;2023-04-29T04:16:10;37.83;;;22.92;;
76167;SDS011;64927;48.214;16.378;2023-04-29T04:18:36;37.90;;;22.67;;
76167;SDS011;64927;48.214;16.378;2023-04-29T04:21:06;37.78;;;22.48;;
76167;SDS011;64927;48.214;16.378;2023-04-29T04:23:35;37.50;;;23.00;;
76167;SDS011;64927;48.214;16.378;2023-04-29T04:26:02;42.08;;;24.17;;
76167;SDS011;64927;48.214;16.378;2023-04-29T04:28:27;37.38;;;23.23;;
76167;SDS011;64927;48.214;16.378;2023-04-29T04:30:53;33.53;;;22.17;;
76167;SDS011;64927;48.214;16.378;2023-04-29T04:33:19;39.88;;;24.10;;
76167;SDS011;64927;48.214;16.378;2023-04-29T04:35:44;38.33;;;23.95;;
76167;SDS011;64927;48.214;16.378;2023-04-29T04:38:10;36.80;;;23.38;;
76167;SDS011;64927;48.214;16.378;2023-04-29T04:40:39;38.42;;;21.92;;
76167;SDS011;64927;48.214;16.378;2023-04-29T04:43:06;40.05;;;22.83;;
76167;SDS011;64927;48.214;16.378;2023-04-29T04:45:31;36.63;;;22.40;;
76167;SDS011;64927;48.214;16.378;2023-04-29T04:47:57;39.10;;;23.13;;
76167;SDS011;64927;48.214;16.378;2023-04-29T04:50:23;32.22;;;22.02;;
76167;SDS011;64927;48.214;16.378;2023-04-29T04:52:48;36.45;;;22.55;;
76167;SDS011;64927;48.214;16.378;2023-04-29T04:55:16;40.47;;;23.55;;
76167;SDS011;64927;48.214;16.378;2023-04-29T04:57:42;36.47;;;21.35;;
76167;SDS011;64927;48.214;16.378;2023-04-29T05:00:08;37.58;;;22.50;;
76167;SDS011;64927;48.214;16.378;2023-04-29T05:02:34;40.17;;;22.80;;
76167;SDS011;64927;48.214;16.378;2023-04-29T05:05:02;36.03;;;21.40;;
76167;SDS011;64927;48.214;16.378;2023-04-29T05:07:28;41.80;;;22.17;;
76167;SDS011;64927;48.214;16.378;2023-04-29T05:09:53;40.97;;;23.20;;
76167;SDS011;64927;48.214;16.378;2023-04-29T05:12:19;37.88;;;22.15;;
76167;SDS011;64927;48.214;16.378;2023-04-29T05:14:44;37.95;;;22.25;;
76167;SDS011;64927;48.214;16.378;2023-04-29T05:17:10;38.63;;;23.55;;
76167;SDS011;64927;48.214;16.378;2023-04-29T05:19:36;38.47;;;23.02;;
76167;SDS011;64927;48.214;16.378;2023-04-29T05:22:01;37.28;;;23.08;;
76167;SDS011;64927;48.214;16.378;2023-04-29T05:24:27;38.55;;;24.77;;
76167;SDS011;64927;48.214;16.378;2023-04-29T05:26:54;42.42;;;24.70;;
76167;SDS011;64927;48.214;16.378;2023-04-29T05:29:20;39.47;;;25.48;;
76167;SDS011;64927;48.214;16.378;2023-04-29T05:31:45;41.33;;;25.83;;
76167;SDS011;64927;48.214;16.378;2023-04-29T05:34:11;37.90;;;24.48;;
76167;SDS011;64927;48.214;16.378;2023-04-29T05:36:37;40.00;;;24.77;;
76167;SDS011;64927;48.214;16.378;2023-04-29T05:39:03;37.30;;;24.88;;
76167;SDS011;64927;48.214;16.378;2023-04-29T05:41:28;38.13;;;25.50;;
76167;SDS011;64927;48.214;16.378;2023-04-29T05:43:54;36.13;;;23.90;;
76167;SDS011;64927;48.214;16.378;2023-04-29T05:46:20;36.97;;;23.05;;
76167;SDS011;64927;48.214;16.378;2023-04-29T05:48:47;37.83;;;23.27;;
76167;SDS011;64927;48.214;16.378;2023-04-29T05:51:13;41.00;;;24.85;;
76167;SDS011;64927;48.214;16.378;2023-04-29T05:53:41;33.70;;;22.50;;
76167;SDS011;64927;48.214;16.378;2023-04-29T05:56:06;36.03;;;21.90;;
76167;SDS011;64927;48.214;16.378;2023-04-29T05:58:33;31.73;;;20.63;;
76167;SDS011;64927;48.214;16.378;2023-04-29T06:00:59;30.58;;;20.45;;
76167;SDS011;64927;48.214;16.378;2023-04-29T06:03:27;31.17;;;20.52;;
76167;SDS011;64927;48.214;16.378;2023-04-29T06:05:53;32.80;;;22.33;;
76167;SDS011;64927;48.214;16.378;2023-04-29T06:08:22;34.30;;;21.38;;
76167;SDS011;64927;48.214;16.378;2023-04-29T06:10:50;32.38;;;21.35;;
76167;SDS011;64927;48.214;16.378;2023-04-29T06:13:16;35.58;;;22.35;;
76167;SDS011;64927;48.214;16.378;2023-04-29T06:15:42;31.65;;;20.52;;
76167;SDS011;64927;48.214;16.378;2023-04-29T06:18:08;27.45;;;19.25;;
76167;SDS011;64927;48.214;16.378;2023-04-29T06:20:36;26.42;;;17.67;;
76167;SDS011;64927;48.214;16.378;2023-04-29T06:23:02;23.65;;;16.20;;
76167;SDS011;64927;48.214;16.378;2023-04-29T06:25:32;23.15;;;14.63;;
76167;SDS011;64927;48.214;16.378;2023-04-29T06:27:58;21.48;;;14.50;;
76167;SDS011;64927;48.214;16.378;2023-04-29T06:30:23;21.83;;;14.98;;
76167;SDS011;64927;48.214;16.378;2023-04-29T06:32:50;20.60;;;13.55;;
76167;SDS011;64927;48.214;16.378;2023-04-29T06:35:15;19.63;;;14.02;;
76167;SDS011;64927;48.214;16.378;2023-04-29T06:37:41;20.45;;;13.65;;
76167;SDS011;64927;48.214;16.378;2023-04-29T06:40:07;19.20;;;13.70;;
76167;SDS011;64927;48.214;16.378;2023-04-29T06:42:33;19.50;;;13.85;;
76167;SDS011;64927;48.214;16.378;2023-04-29T06:44:58;18.80;;;13.05;;
76167;SDS011;64927;48.214;16.378;2023-04-29T06:47:24;17.17;;;12.23;;
76167;SDS011;64927;48.214;16.378;2023-04-29T06:49:50;17.58;;;11.10;;
76167;SDS011;64927;48.214;16.378;2023-04-29T06:52:16;14.60;;;10.23;;
76167;SDS011;64927;48.214;16.378;2023-04-29T06:54:43;14.73;;;11.02;;
76167;SDS011;64927;48.214;16.378;2023-04-29T06:57:08;15.25;;;10.50;;
76167;SDS011;64927;48.214;16.378;2023-04-29T06:59:36;14.50;;;10.23;;
76167;SDS011;64927;48.214;16.378;2023-04-29T07:02:02;13.15;;;9.32;;
76167;SDS011;64927;48.214;16.378;2023-04-29T07:04:27;11.60;;;9.35;;
76167;SDS011;64927;48.214;16.378;2023-04-29T07:06:55;12.43;;;9.75;;
76167;SDS011;64927;48.214;16.378;2023-04-29T07:09:23;10.45;;;8.95;;
76167;SDS011;64927;48.214;16.378;2023-04-29T07:11:50;13.63;;;9.63;;
76167;SDS011;64927;48.214;16.378;2023-04-29T07:14:16;12.48;;;10.25;;
76167;SDS011;64927;48.214;16.378;2023-04-29T07:16:41;13.07;;;9.55;;
76167;SDS011;64927;48.214;16.378;2023-04-29T07:19:07;13.88;;;9.43;;
76167;SDS011;64927;48.214;16.378;2023-04-29T07:21:33;12.40;;;9.65;;
76167;SDS011;64927;48.214;16.378;2023-04-29T07:23:58;9.70;;;8.27;;
76167;SDS011;64927;48.214;16.378;2023-04-29T07:26:28;10.13;;;8.05;;
76167;SDS011;64927;48.214;16.378;2023-04-29T07:28:54;10.95;;;8.25;;
76167;SDS011;64927;48.214;16.378;2023-04-29T07:31:20;10.52;;;8.55;;
76167;SDS011;64927;48.214;16.378;2023-04-29T07:33:48;9.68;;;7.70;;
76167;SDS011;64927;48.214;16.378;2023-04-29T07:36:13;10.60;;;8.20;;
76167;SDS011;64927;48.214;16.378;2023-04-29T07:38:39;12.65;;;9.07;;
76167;SDS011;64927;48.214;16.378;2023-04-29T07:41:05;11.60;;;8.85;;
76167;SDS011;64927;48.214;16.378;2023-04-29T07:43:31;10.10;;;7.53;;
76167;SDS011;64927;48.214;16.378;2023-04-29T07:45:56;14.20;;;7.25;;
76167;SDS011;64927;48.214;16.378;2023-04-29T07:48:24;9.80;;;7.70;;
76167;SDS011;64927;48.214;16.378;2023-04-29T07:50:50;8.15;;;6.68;;
76167;SDS011;64927;48.214;16.378;2023-04-29T07:53:15;9.02;;;7.47;;
76167;SDS011;64927;48.214;16.378;2023-04-29T07:55:42;7.78;;;6.53;;
76167;SDS011;64927;48.214;16.378;2023-04-29T07:58:11;9.85;;;7.10;;
76167;SDS011;64927;48.214;16.378;2023-04-29T08:00:37;8.65;;;6.50;;
76167;SDS011;64927;48.214;16.378;2023-04-29T08:03:02;8.23;;;5.05;;
76167;SDS011;64927;48.214;16.378;2023-04-29T08:05:28;7.90;;;5.32;;
76167;SDS011;64927;48.214;16.378;2023-04-29T08:07:54;7.05;;;5.45;;
76167;SDS011;64927;48.214;16.378;2023-04-29T08:10:20;5.50;;;4.93;;
76167;SDS011;64927;48.214;16.378;2023-04-29T08:12:49;8.40;;;5.43;;
76167;SDS011;64927;48.214;16.378;2023-04-29T08:15:14;6.13;;;5.07;;
76167;SDS011;64927;48.214;16.378;2023-04-29T08:17:42;7.88;;;5.75;;
76167;SDS011;64927;48.214;16.378;2023-04-29T08:20:08;6.88;;;5.25;;
76167;SDS011;64927;48.214;16.378;2023-04-29T08:22:34;7.50;;;6.30;;
76167;SDS011;64927;48.214;16.378;2023-04-29T08:25:00;10.60;;;7.30;;
76167;SDS011;64927;48.214;16.378;2023-04-29T08:27:27;7.32;;;5.70;;
76167;SDS011;64927;48.214;16.378;2023-04-29T08:29:53;8.60;;;6.13;;
76167;SDS011;64927;48.214;16.378;2023-04-29T08:32:20;9.32;;;6.55;;
76167;SDS011;64927;48.214;16.378;2023-04-29T08:34:46;8.05;;;6.10;;
76167;SDS011;64927;48.214;16.378;2023-04-29T08:37:13;6.95;;;5.45;;
76167;SDS011;64927;48.214;16.378;2023-04-29T08:39:41;6.88;;;5.50;;
76167;SDS011;64927;48.214;16.378;2023-04-29T08:42:13;7.63;;;5.72;;
76167;SDS011;64927;48.214;16.378;2023-04-29T08:44:41;10.60;;;7.07;;
76167;SDS011;64927;48.214;16.378;2023-04-29T08:47:08;6.40;;;4.88;;
76167;SDS011;64927;48.214;16.378;2023-04-29T08:49:34;6.05;;;5.10;;
76167;SDS011;64927;48.214;16.378;2023-04-29T08:52:02;6.32;;;5.03;;
76167;SDS011;64927;48.214;16.378;2023-04-29T08:54:28;6.65;;;5.57;;
76167;SDS011;64927;48.214;16.378;2023-04-29T08:56:55;6.57;;;4.88;;
76167;SDS011;64927;48.214;16.378;2023-04-29T08:59:23;5.90;;;5.00;;
76167;SDS011;64927;48.214;16.378;2023-04-29T09:01:50;6.80;;;4.88;;
76167;SDS011;64927;48.214;16.378;2023-04-29T09:04:21;6.78;;;5.18;;
76167;SDS011;64927;48.214;16.378;2023-04-29T09:07:10;7.55;;;6.07;;
76167;SDS011;64927;48.214;16.378;2023-04-29T09:09:38;6.13;;;4.80;;
76167;SDS011;64927;48.214;16.378;2023-04-29T09:12:04;7.90;;;5.18;;
76167;SDS011;64927;48.214;16.378;2023-04-29T09:14:30;7.18;;;5.43;;
76167;SDS011;64927;48.214;16.378;2023-04-29T09:17:02;9.15;;;5.65;;
76167;SDS011;64927;48.214;16.378;2023-04-29T09:19:35;8.68;;;5.57;;
76167;SDS011;64927;48.214;16.378;2023-04-29T09:22:01;8.68;;;5.75;;
76167;SDS011;64927;48.214;16.378;2023-04-29T09:24:28;9.95;;;6.22;;
76167;SDS011;64927;48.214;16.378;2023-04-29T09:26:55;12.88;;;7.32;;
76167;SDS011;64927;48.214;16.378;2023-04-29T09:29:21;9.93;;;7.20;;
76167;SDS011;64927;48.214;16.378;2023-04-29T09:31:47;12.15;;;8.23;;
76167;SDS011;64927;48.214;16.378;2023-04-29T09:34:13;12.95;;;8.70;;
76167;SDS011;64927;48.214;16.378;2023-04-29T09:39:13;9.23;;;7.22;;
76167;SDS011;64927;48.214;16.378;2023-04-29T09:44:22;5.80;;;3.63;;
76167;SDS011;64927;48.214;16.378;2023-04-29T09:49:29;6.47;;;4.20;;
76167;SDS011;64927;48.214;16.378;2023-04-29T09:52:00;4.68;;;3.05;;
76167;SDS011;64927;48.214;16.378;2023-04-29T09:54:29;3.65;;;2.58;;
76167;SDS011;64927;48.214;16.378;2023-04-29T09:56:56;2.10;;;1.40;;
76167;SDS011;64927;48.214;16.378;2023-04-29T09:59:23;2.47;;;1.27;;
76167;SDS011;64927;48.214;16.378;2023-04-29T10:01:50;2.25;;;1.35;;
76167;SDS011;64927;48.214;16.378;2023-04-29T10:04:18;2.50;;;0.95;;
76167;SDS011;64927;48.214;16.378;2023-04-29T10:06:45;8.15;;;5.75;;
76167;SDS011;64927;48.214;16.378;2023-04-29T10:09:14;9.65;;;6.55;;
76167;SDS011;64927;48.214;16.378;2023-04-29T10:11:40;7.30;;;4.60;;
76167;SDS011;64927;48.214;16.378;2023-04-29T10:14:08;13.07;;;6.35;;
76167;SDS011;64927;48.214;16.378;2023-04-29T10:16:42;7.25;;;5.65;;
76167;SDS011;64927;48.214;16.378;2023-04-29T10:19:11;9.52;;;5.78;;
76167;SDS011;64927;48.214;16.378;2023-04-29T10:21:39;8.30;;;6.20;;
76167;SDS011;64927;48.214;16.378;2023-04-29T10:24:05;9.93;;;7.75;;
76167;SDS011;64927;48.214;16.378;2023-04-29T10:26:37;12.95;;;9.70;;
76167;SDS011;64927;48.214;16.378;2023-04-29T10:29:04;11.52;;;9.25;;
76167;SDS011;64927;48.214;16.378;2023-04-29T10:31:32;12.10;;;8.48;;
76167;SDS011;64927;48.214;16.378;2023-04-29T10:34:01;14.10;;;9.75;;
76167;SDS011;64927;48.214;16.378;2023-04-29T10:36:27;13.07;;;10.05;;
76167;SDS011;64927;48.214;16.378;2023-04-29T10:38:56;18.05;;;11.43;;
76167;SDS011;64927;48.214;16.378;2023-04-29T10:41:36;16.85;;;12.15;;
76167;SDS011;64927;48.214;16.378;2023-04-29T10:44:09;15.48;;;12.05;;
76167;SDS011;64927;48.214;16.378;2023-04-29T10:46:35;17.48;;;11.90;;
76167;SDS011;64927;48.214;16.378;2023-04-29T10:49:04;17.05;;;12.65;;
76167;SDS011;64927;48.214;16.378;2023-04-29T10:51:41;14.18;;;11.45;;
76167;SDS011;64927;48.214;16.378;2023-04-29T11:02:06;14.82;;;11.05;;
76167;SDS011;64927;48.214;16.378;2023-04-29T11:05:05;18.50;;;11.07;;
76167;SDS011;64927;48.214;16.378;2023-04-29T11:07:31;15.48;;;10.75;;
76167;SDS011;64927;48.214;16.378;2023-04-29T11:09:56;18.85;;;12.35;;
76167;SDS011;64927;48.214;16.378;2023-04-29T11:12:22;13.27;;;10.15;;
76167;SDS011;64927;48.214;16.378;2023-04-29T11:14:48;15.00;;;10.30;;
76167;SDS011;64927;48.214;16.378;2023-04-29T11:17:15;17.08;;;12.63;;
76167;SDS011;64927;48.214;16.378;2023-04-29T11:19:45;16.80;;;12.63;;
76167;SDS011;64927;48.214;16.378;2023-04-29T11:24:49;16.23;;;11.68;;
76167;SDS011;64927;48.214;16.378;2023-04-29T11:27:19;15.73;;;12.00;;
76167;SDS011;64927;48.214;16.378;2023-04-29T11:29:49;16.75;;;12.38;;
76167;SDS011;64927;48.214;16.378;2023-04-29T11:32:18;16.75;;;10.45;;
76167;SDS011;64927;48.214;16.378;2023-04-29T11:34:46;12.55;;;10.02;;
76167;SDS011;64927;48.214;16.378;2023-04-29T11:37:11;13.40;;;10.52;;
76167;SDS011;64927;48.214;16.378;2023-04-29T11:39:39;16.38;;;10.57;;
76167;SDS011;64927;48.214;16.378;2023-04-29T11:42:05;15.88;;;10.88;;
76167;SDS011;64927;48.214;16.378;2023-04-29T11:44:34;15.52;;;10.77;;
76167;SDS011;64927;48.214;16.378;2023-04-29T11:47:05;20.02;;;11.70;;
76167;SDS011;64927;48.214;16.378;2023-04-29T11:49:31;17.23;;;11.35;;
76167;SDS011;64927;48.214;16.378;2023-04-29T11:51:58;17.17;;;10.77;;
76167;SDS011;64927;48.214;16.378;2023-04-29T11:54:26;15.25;;;10.32;;
76167;SDS011;64927;48.214;16.378;2023-04-29T11:56:53;12.27;;;8.20;;
76167;SDS011;64927;48.214;16.378;2023-04-29T11:59:19;12.85;;;8.82;;
76167;SDS011;64927;48.214;16.378;2023-04-29T12:01:50;9.00;;;7.20;;
76167;SDS011;64927;48.214;16.378;2023-04-29T12:04:18;8.40;;;6.80;;
76167;SDS011;64927;48.214;16.378;2023-04-29T12:06:45;9.65;;;7.15;;
76167;SDS011;64927;48.214;16.378;2023-04-29T12:09:10;9.95;;;7.50;;
76167;SDS011;64927;48.214;16.378;2023-04-29T12:11:36;10.50;;;7.53;;
76167;SDS011;64927;48.214;16.378;2023-04-29T12:14:02;8.80;;;7.18;;
76167;SDS011;64927;48.214;16.378;2023-04-29T12:16:30;12.23;;;8.48;;
76167;SDS011;64927;48.214;16.378;2023-04-29T12:18:59;11.95;;;9.07;;
76167;SDS011;64927;48.214;16.378;2023-04-29T12:21:25;11.23;;;7.28;;
76167;SDS011;64927;48.214;16.378;2023-04-29T12:23:57;10.05;;;7.78;;
76167;SDS011;64927;48.214;16.378;2023-04-29T12:26:27;11.52;;;7.25;;
76167;SDS011;64927;48.214;16.378;2023-04-29T12:28:53;11.88;;;7.70;;
76167;SDS011;64927;48.214;16.378;2023-04-29T12:31:21;11.30;;;8.73;;
76167;SDS011;64927;48.214;16.378;2023-04-29T12:33:48;13.18;;;8.25;;
76167;SDS011;64927;48.214;16.378;2023-04-29T12:36:17;11.57;;;8.63;;
76167;SDS011;64927;48.214;16.378;2023-04-29T12:38:43;13.50;;;7.72;;
76167;SDS011;64927;48.214;16.378;2023-04-29T12:41:12;10.32;;;7.80;;
76167;SDS011;64927;48.214;16.378;2023-04-29T12:43:41;9.88;;;7.72;;
76167;SDS011;64927;48.214;16.378;2023-04-29T12:46:07;10.55;;;8.20;;
76167;SDS011;64927;48.214;16.378;2023-04-29T12:48:35;11.20;;;8.10;;
76167;SDS011;64927;48.214;16.378;2023-04-29T12:51:19;11.60;;;9.02;;
76167;SDS011;64927;48.214;16.378;2023-04-29T12:53:44;15.95;;;10.80;;
76167;SDS011;64927;48.214;16.378;2023-04-29T12:56:11;17.63;;;10.15;;
76167;SDS011;64927;48.214;16.378;2023-04-29T12:58:37;14.40;;;10.63;;
76167;SDS011;64927;48.214;16.378;2023-04-29T13:01:02;13.45;;;10.18;;
76167;SDS011;64927;48.214;16.378;2023-04-29T13:03:30;15.07;;;10.32;;
76167;SDS011;64927;48.214;16.378;2023-04-29T13:05:56;14.88;;;10.30;;
76167;SDS011;64927;48.214;16.378;2023-04-29T13:08:23;13.18;;;10.07;;
76167;SDS011;64927;48.214;16.378;2023-04-29T13:10:48;17.02;;;11.75;;
76167;SDS011;64927;48.214;16.378;2023-04-29T13:13:14;15.50;;;11.20;;
76167;SDS011;64927;48.214;16.378;2023-04-29T13:15:40;16.40;;;11.77;;
76167;SDS011;64927;48.214;16.378;2023-04-29T13:18:08;14.15;;;11.30;;
76167;SDS011;64927;48.214;16.378;2023-04-29T13:20:34;14.52;;;10.77;;
76167;SDS011;64927;48.214;16.378;2023-04-29T13:23:00;15.57;;;11.25;;
76167;SDS011;64927;48.214;16.378;2023-04-29T13:25:27;10.07;;;8.68;;
76167;SDS011;64927;48.214;16.378;2023-04-29T13:27:53;13.07;;;9.27;;
76167;SDS011;64927;48.214;16.378;2023-04-29T13:30:19;10.35;;;7.10;;
76167;SDS011;64927;48.214;16.378;2023-04-29T13:32:47;9.73;;;7.68;;
76167;SDS011;64927;48.214;16.378;2023-04-29T13:35:12;12.43;;;7.80;;
76167;SDS011;64927;48.214;16.378;2023-04-29T13:37:38;9.50;;;7.05;;
76167;SDS011;64927;48.214;16.378;2023-04-29T13:40:04;6.60;;;5.70;;
76167;SDS011;64927;48.214;16.378;2023-04-29T13:42:33;8.23;;;5.47;;
76167;SDS011;64927;48.214;16.378;2023-04-29T13:44:58;7.20;;;4.82;;
76167;SDS011;64927;48.214;16.378;2023-04-29T13:47:27;6.05;;;4.40;;
76167;SDS011;64927;48.214;16.378;2023-04-29T13:49:53;8.70;;;5.18;;
76167;SDS011;64927;48.214;16.378;2023-04-29T13:52:19;8.80;;;4.93;;
76167;SDS011;64927;48.214;16.378;2023-04-29T13:54:44;7.82;;;5.70;;
76167;SDS011;64927;48.214;16.378;2023-04-29T13:57:13;7.90;;;5.85;;
76167;SDS011;64927;48.214;16.378;2023-04-29T13:59:38;7.70;;;5.57;;
76167;SDS011;64927;48.214;16.378;2023-04-29T14:02:04;6.80;;;5.35;;
76167;SDS011;64927;48.214;16.378;2023-04-29T14:04:30;8.13;;;5.97;;
76167;SDS011;64927;48.214;16.378;2023-04-29T14:06:56;7.90;;;3.63;;
76167;SDS011;64927;48.214;16.378;2023-04-29T14:09:24;4.20;;;2.53;;
76167;SDS011;64927;48.214;16.378;2023-04-29T14:11:50;4.90;;;2.00;;
76167;SDS011;64927;48.214;16.378;2023-04-29T14:14:16;2.75;;;2.00;;
76167;SDS011;64927;48.214;16.378;2023-04-29T14:16:42;3.17;;;1.95;;
76167;SDS011;64927;48.214;16.378;2023-04-29T14:19:08;7.38;;;2.85;;
76167;SDS011;64927;48.214;16.378;2023-04-29T14:21:33;4.40;;;2.92;;
76167;SDS011;64927;48.214;16.378;2023-04-29T14:24:02;5.00;;;3.28;;
76167;SDS011;64927;48.214;16.378;2023-04-29T14:26:30;4.05;;;2.70;;
76167;SDS011;64927;48.214;16.378;2023-04-29T14:28:58;5.38;;;3.00;;
76167;SDS011;64927;48.214;16.378;2023-04-29T14:31:24;3.22;;;2.67;;
76167;SDS011;64927;48.214;16.378;2023-04-29T14:33:56;3.95;;;3.08;;
76167;SDS011;64927;48.214;16.378;2023-04-29T14:36:23;6.90;;;2.78;;
76167;SDS011;64927;48.214;16.378;2023-04-29T14:38:49;5.45;;;3.17;;
76167;SDS011;64927;48.214;16.378;2023-04-29T14:41:15;3.00;;;2.38;;
76167;SDS011;64927;48.214;16.378;2023-04-29T14:43:43;4.28;;;2.70;;
76167;SDS011;64927;48.214;16.378;2023-04-29T14:46:09;7.10;;;2.60;;
76167;SDS011;64927;48.214;16.378;2023-04-29T14:48:35;8.57;;;2.95;;
76167;SDS011;64927;48.214;16.378;2023-04-29T14:51:01;3.33;;;2.08;;
76167;SDS011;64927;48.214;16.378;2023-04-29T14:53:26;3.70;;;2.10;;
76167;SDS011;64927;48.214;16.378;2023-04-29T14:55:52;2.92;;;1.70;;